Time,TemperatureF,DewpointF,PressureIn,WindDirection,WindDirectionDegrees,WindSpeedMPH,WindSpeedGustMPH,Humidity,HourlyPrecipIn,Conditions,Clouds,dailyrainin,SoftwareType,DateUTC
2013-07-07 00:00:00,45.0,-99.9,44.89,North,-999,-999.0,-999.0,-999,-99.99,,,0.02,,2013-07-07 07:00:00,
2013-07-07 01:00:00,45.0,-99.9,44.89,West,263,1.0,3.0,-999,-99.99,,,0.02,,2013-07-07 08:00:00,
2013-07-07 01:53:00,45.0,-99.9,44.89,West,263,1.0,3.0,-999,-99.99,,,0.02,,2013-07-07 08:53:00,
2013-07-07 02:00:00,45.0,-99.9,44.89,West,280,1.0,2.0,-999,-99.99,,,0.02,,2013-07-07 09:00:00,
2013-07-07 03:00:00,45.0,-99.9,44.89,West,277,1.0,2.0,-999,-99.99,,,0.02,,2013-07-07 10:00:00,
2013-07-07 03:52:00,45.0,-99.9,44.89,West,277,1.0,2.0,-999,-99.99,,,0.02,,2013-07-07 10:52:00,
2013-07-07 04:00:00,45.0,-99.9,44.89,West,273,1.0,2.0,-999,-99.99,,,0.02,,2013-07-07 11:00:00,
2013-07-07 05:00:00,45.0,-99.9,44.89,West,275,1.0,2.0,-999,-99.99,,,0.02,,2013-07-07 12:00:00,
2013-07-07 06:00:00,45.0,-99.9,44.89,West,266,1.0,3.0,-999,-99.99,,,0.02,,2013-07-07 13:00:00,
2013-07-07 06:53:00,45.0,-99.9,44.89,West,266,1.0,3.0,-999,-99.99,,,0.02,,2013-07-07 13:53:00,
2013-07-07 07:00:00,51.0,-99.9,44.89,West,269,0.0,2.0,-999,-99.99,,,0.02,,2013-07-07 14:00:00,
2013-07-07 07:53:00,51.0,-99.9,44.89,West,269,0.0,2.0,-999,-99.99,,,0.02,,2013-07-07 14:53:00,
2013-07-07 08:00:00,60.0,-99.9,44.89,WSW,253,0.0,1.0,-999,-99.99,,,0.02,,2013-07-07 15:00:00,
2013-07-07 08:52:00,60.0,-99.9,44.89,WSW,253,0.0,1.0,-999,-99.99,,,0.02,,2013-07-07 15:52:00,
2013-07-07 09:00:00,64.0,-99.9,44.89,ESE,118,0.0,3.0,-999,-99.99,,,0.02,,2013-07-07 16:00:00,
2013-07-07 10:00:00,63.0,-99.9,44.89,South,175,1.0,4.0,-999,-99.99,,,0.02,,2013-07-07 17:00:00,
2013-07-07 11:00:00,63.0,-99.9,44.89,NE,56,2.0,6.0,-999,-99.99,,,0.02,,2013-07-07 18:00:00,
2013-07-07 11:53:00,63.0,-99.9,44.89,NE,56,2.0,6.0,-999,-99.99,,,0.02,,2013-07-07 18:53:00,
2013-07-07 12:00:00,65.0,-99.9,44.89,NE,49,1.0,6.0,-999,-99.99,,,0.02,,2013-07-07 19:00:00,
2013-07-07 12:54:00,65.0,-99.9,44.89,NE,49,1.0,6.0,-999,-99.99,,,0.02,,2013-07-07 19:54:00,
2013-07-07 13:00:00,68.0,-99.9,44.89,North,356,3.0,7.0,-999,-99.99,,,0.00,,2013-07-07 20:00:00,
2013-07-07 13:53:00,68.0,-99.9,44.89,North,356,3.0,7.0,-999,-99.99,,,0.00,,2013-07-07 20:53:00,
2013-07-07 14:00:00,61.0,-99.9,44.89,West,266,2.0,6.0,-999,-99.99,,,0.00,,2013-07-07 21:00:00,
2013-07-07 14:53:00,61.0,-99.9,44.89,West,266,2.0,6.0,-999,-99.99,,,0.00,,2013-07-07 21:53:00,
2013-07-07 15:00:00,64.0,-99.9,44.89,NNW,344,3.0,10.0,-999,-99.99,,,0.00,,2013-07-07 22:00:00,
2013-07-07 15:54:00,64.0,-99.9,44.89,NNW,344,3.0,10.0,-999,-99.99,,,0.00,,2013-07-07 22:54:00,
2013-07-07 16:00:00,66.0,-99.9,44.89,North,360,2.0,9.0,-999,-99.99,,,0.00,,2013-07-07 23:00:00,
2013-07-07 16:53:00,66.0,-99.9,44.89,North,360,2.0,9.0,-999,-99.99,,,0.00,,2013-07-07 23:53:00,
2013-07-07 17:00:00,65.0,-99.9,44.89,NNW,343,2.0,7.0,-999,-99.99,,,0.00,,2013-07-08 00:00:00,
2013-07-07 17:43:00,65.0,-99.9,-100.00,NNW,343,2.0,7.0,-999,-99.99,,,0.00,,2013-07-08 00:43:00,
2013-07-07 17:53:00,65.0,-99.9,44.89,NNW,343,2.0,7.0,-999,-99.99,,,0.00,,2013-07-08 00:53:00,
2013-07-07 18:00:00,64.0,-99.9,44.89,NNW,328,1.0,8.0,-999,-99.99,,,0.00,,2013-07-08 01:00:00,
2013-07-07 19:00:00,62.0,-99.9,44.89,NNW,348,1.0,7.0,-999,-99.99,,,0.00,,2013-07-08 02:00:00,
2013-07-07 19:52:00,62.0,-99.9,44.89,NNW,348,1.0,7.0,-999,-99.99,,,0.00,,2013-07-08 02:52:00,
2013-07-07 20:00:00,60.0,-99.9,44.89,West,275,1.0,4.0,-999,-99.99,,,0.00,,2013-07-08 03:00:00,
2013-07-07 20:52:00,60.0,-99.9,44.89,West,275,1.0,4.0,-999,-99.99,,,0.00,,2013-07-08 03:52:00,
2013-07-07 21:00:00,57.0,-99.9,-100.00,West,279,1.0,7.0,-999,-99.99,,,0.00,,2013-07-08 04:00:00,
2013-07-07 22:00:00,57.0,-99.9,44.89,West,274,1.0,4.0,-999,-99.99,,,0.00,,2013-07-08 05:00:00,
2013-07-07 22:43:00,57.0,-99.9,-100.00,West,274,1.0,4.0,-999,-99.99,,,0.00,,2013-07-08 05:43:00,
2013-07-07 22:53:00,57.0,-99.9,44.89,West,274,1.0,4.0,-999,-99.99,,,0.00,,2013-07-08 05:53:00,
2013-07-07 23:00:00,57.0,-99.9,44.89,WSW,253,1.0,3.0,-999,-99.99,,,0.00,,2013-07-08 06:00:00,
2013-07-07 23:43:00,57.0,-99.9,-100.00,WSW,253,1.0,3.0,-999,-99.99,,,0.00,,2013-07-08 06:43:00,
2013-07-07 23:53:00,57.0,-99.9,44.89,WSW,253,1.0,3.0,-999,-99.99,,,0.00,,2013-07-08 06:53:00,